sensor_id;sensor_type;location;lat;lon;timestamp;temperature;humidity
5675;DHT22;2860;54.284;10.158;2023-06-19T00:01:54;15.70;99.90
5675;DHT22;2860;54.284;10.158;2023-06-19T00:04:19;15.70;99.90
5675;DHT22;2860;54.284;10.158;2023-06-19T00:06:45;15.70;99.90
5675;DHT22;2860;54.284;10.158;2023-06-19T00:09:10;15.60;99.90
5675;DHT22;2860;54.284;10.158;2023-06-19T00:11:36;15.60;99.90
5675;DHT22;2860;54.284;10.158;2023-06-19T00:14:01;15.60;99.90
5675;DHT22;2860;54.284;10.158;2023-06-19T00:16:27;15.50;99.90
5675;DHT22;2860;54.284;10.158;2023-06-19T00:18:52;15.50;99.90
5675;DHT22;2860;54.284;10.158;2023-06-19T00:21:23;15.50;99.90
5675;DHT22;2860;54.284;10.158;2023-06-19T00:23:50;15.40;99.90
5675;DHT22;2860;54.284;10.158;2023-06-19T00:26:16;15.40;99.90
5675;DHT22;2860;54.284;10.158;2023-06-19T00:28:41;15.30;99.90
5675;DHT22;2860;54.284;10.158;2023-06-19T00:31:09;15.30;99.90
5675;DHT22;2860;54.284;10.158;2023-06-19T00:33:34;15.20;99.90
5675;DHT22;2860;54.284;10.158;2023-06-19T00:35:59;15.20;99.90
5675;DHT22;2860;54.284;10.158;2023-06-19T00:38:26;15.20;99.90
5675;DHT22;2860;54.284;10.158;2023-06-19T00:40:51;15.20;99.90
5675;DHT22;2860;54.284;10.158;2023-06-19T00:43:17;15.20;99.90
5675;DHT22;2860;54.284;10.158;2023-06-19T00:45:43;15.20;99.90
5675;DHT22;2860;54.284;10.158;2023-06-19T00:48:08;15.20;99.90
5675;DHT22;2860;54.284;10.158;2023-06-19T00:50:34;15.20;99.90
5675;DHT22;2860;54.284;10.158;2023-06-19T00:53:00;15.20;99.90
5675;DHT22;2860;54.284;10.158;2023-06-19T00:55:29;15.30;99.90
5675;DHT22;2860;54.284;10.158;2023-06-19T00:57:56;15.30;99.90
5675;DHT22;2860;54.284;10.158;2023-06-19T01:00:21;15.30;99.90
5675;DHT22;2860;54.284;10.158;2023-06-19T01:02:47;15.30;99.90
5675;DHT22;2860;54.284;10.158;2023-06-19T01:05:13;15.30;99.90
5675;DHT22;2860;54.284;10.158;2023-06-19T01:10:49;15.30;99.90
5675;DHT22;2860;54.284;10.158;2023-06-19T01:13:22;15.40;99.90
5675;DHT22;2860;54.284;10.158;2023-06-19T01:15:49;15.40;99.90
5675;DHT22;2860;54.284;10.158;2023-06-19T01:18:16;15.40;99.90
5675;DHT22;2860;54.284;10.158;2023-06-19T01:20:42;15.40;99.90
5675;DHT22;2860;54.284;10.158;2023-06-19T01:23:08;15.40;99.90
5675;DHT22;2860;54.284;10.158;2023-06-19T01:25:34;15.40;99.90
5675;DHT22;2860;54.284;10.158;2023-06-19T01:28:01;15.40;99.90
5675;DHT22;2860;54.284;10.158;2023-06-19T01:30:27;15.40;99.90
5675;DHT22;2860;54.284;10.158;2023-06-19T01:32:58;15.40;99.90
5675;DHT22;2860;54.284;10.158;2023-06-19T01:35:28;15.30;99.90
5675;DHT22;2860;54.284;10.158;2023-06-19T01:37:55;15.30;99.90
5675;DHT22;2860;54.284;10.158;2023-06-19T01:40:22;15.20;99.90
5675;DHT22;2860;54.284;10.158;2023-06-19T01:42:52;15.20;99.90
5675;DHT22;2860;54.284;10.158;2023-06-19T01:45:18;15.20;99.90
5675;DHT22;2860;54.284;10.158;2023-06-19T01:47:43;15.10;99.90
5675;DHT22;2860;54.284;10.158;2023-06-19T01:50:10;15.10;99.90
5675;DHT22;2860;54.284;10.158;2023-06-19T01:52:37;15.00;99.90
5675;DHT22;2860;54.284;10.158;2023-06-19T01:55:02;15.00;99.90
5675;DHT22;2860;54.284;10.158;2023-06-19T01:57:29;15.00;99.90
5675;DHT22;2860;54.284;10.158;2023-06-19T01:59:55;14.90;99.90
5675;DHT22;2860;54.284;10.158;2023-06-19T02:02:20;14.80;99.90
5675;DHT22;2860;54.284;10.158;2023-06-19T02:04:46;14.80;99.90
5675;DHT22;2860;54.284;10.158;2023-06-19T02:07:12;14.80;99.90
5675;DHT22;2860;54.284;10.158;2023-06-19T02:09:37;14.70;99.90
5675;DHT22;2860;54.284;10.158;2023-06-19T02:12:03;14.70;99.90
5675;DHT22;2860;54.284;10.158;2023-06-19T02:14:29;14.70;99.90
5675;DHT22;2860;54.284;10.158;2023-06-19T02:16:54;14.60;99.90
5675;DHT22;2860;54.284;10.158;2023-06-19T02:19:20;14.60;99.90
5675;DHT22;2860;54.284;10.158;2023-06-19T02:21:45;14.60;99.90
5675;DHT22;2860;54.284;10.158;2023-06-19T02:24:11;14.60;99.90
5675;DHT22;2860;54.284;10.158;2023-06-19T02:26:36;14.60;99.90
5675;DHT22;2860;54.284;10.158;2023-06-19T02:29:02;14.50;99.90
5675;DHT22;2860;54.284;10.158;2023-06-19T02:31:27;14.60;99.90
5675;DHT22;2860;54.284;10.158;2023-06-19T02:33:53;14.60;99.90
5675;DHT22;2860;54.284;10.158;2023-06-19T02:36:18;14.70;99.90
5675;DHT22;2860;54.284;10.158;2023-06-19T02:38:48;14.80;99.90
5675;DHT22;2860;54.284;10.158;2023-06-19T02:41:14;15.00;99.90
5675;DHT22;2860;54.284;10.158;2023-06-19T02:43:41;15.10;99.90
5675;DHT22;2860;54.284;10.158;2023-06-19T02:46:07;15.20;99.90
5675;DHT22;2860;54.284;10.158;2023-06-19T02:48:32;15.30;99.90
5675;DHT22;2860;54.284;10.158;2023-06-19T02:50:58;15.40;99.90
5675;DHT22;2860;54.284;10.158;2023-06-19T02:53:23;15.50;99.90
5675;DHT22;2860;54.284;10.158;2023-06-19T02:55:49;15.50;99.90
5675;DHT22;2860;54.284;10.158;2023-06-19T02:58:14;15.50;99.90
5675;DHT22;2860;54.284;10.158;2023-06-19T03:00:40;15.70;99.90
5675;DHT22;2860;54.284;10.158;2023-06-19T03:03:05;15.80;99.90
5675;DHT22;2860;54.284;10.158;2023-06-19T03:05:31;15.90;99.90
5675;DHT22;2860;54.284;10.158;2023-06-19T03:07:56;16.00;99.90
5675;DHT22;2860;54.284;10.158;2023-06-19T03:10:22;16.10;99.90
5675;DHT22;2860;54.284;10.158;2023-06-19T03:12:48;16.20;99.90
5675;DHT22;2860;54.284;10.158;2023-06-19T03:15:13;16.30;99.90
5675;DHT22;2860;54.284;10.158;2023-06-19T03:17:39;16.40;99.90
5675;DHT22;2860;54.284;10.158;2023-06-19T03:20:05;16.40;99.90
5675;DHT22;2860;54.284;10.158;2023-06-19T03:22:31;16.50;99.90
5675;DHT22;2860;54.284;10.158;2023-06-19T03:24:57;16.50;99.90
5675;DHT22;2860;54.284;10.158;2023-06-19T03:27:22;16.60;99.90
5675;DHT22;2860;54.284;10.158;2023-06-19T03:29:48;16.60;99.90
5675;DHT22;2860;54.284;10.158;2023-06-19T03:32:13;16.70;99.90
5675;DHT22;2860;54.284;10.158;2023-06-19T03:34:39;16.70;99.90
5675;DHT22;2860;54.284;10.158;2023-06-19T03:37:05;16.80;99.90
5675;DHT22;2860;54.284;10.158;2023-06-19T03:39:30;16.80;99.90
5675;DHT22;2860;54.284;10.158;2023-06-19T03:41:56;16.80;99.90
5675;DHT22;2860;54.284;10.158;2023-06-19T03:44:21;16.90;99.90
5675;DHT22;2860;54.284;10.158;2023-06-19T03:46:47;16.90;99.90
5675;DHT22;2860;54.284;10.158;2023-06-19T03:49:12;16.90;99.90
5675;DHT22;2860;54.284;10.158;2023-06-19T03:51:38;16.90;99.90
5675;DHT22;2860;54.284;10.158;2023-06-19T03:54:04;16.90;99.90
5675;DHT22;2860;54.284;10.158;2023-06-19T03:56:29;16.90;99.90
5675;DHT22;2860;54.284;10.158;2023-06-19T03:58:55;17.00;99.90
5675;DHT22;2860;54.284;10.158;2023-06-19T04:01:20;17.00;99.90
5675;DHT22;2860;54.284;10.158;2023-06-19T04:03:46;17.00;99.90
5675;DHT22;2860;54.284;10.158;2023-06-19T04:06:11;17.10;99.90
5675;DHT22;2860;54.284;10.158;2023-06-19T04:08:37;17.10;99.90
5675;DHT22;2860;54.284;10.158;2023-06-19T04:11:02;17.10;99.90
5675;DHT22;2860;54.284;10.158;2023-06-19T04:13:28;17.10;99.90
5675;DHT22;2860;54.284;10.158;2023-06-19T04:15:53;17.10;99.90
5675;DHT22;2860;54.284;10.158;2023-06-19T04:18:18;17.10;99.90
5675;DHT22;2860;54.284;10.158;2023-06-19T04:20:44;17.20;99.90
5675;DHT22;2860;54.284;10.158;2023-06-19T04:23:09;17.20;99.90
5675;DHT22;2860;54.284;10.158;2023-06-19T04:25:35;17.20;99.90
5675;DHT22;2860;54.284;10.158;2023-06-19T04:28:01;17.20;99.90
5675;DHT22;2860;54.284;10.158;2023-06-19T04:30:29;17.30;99.90
5675;DHT22;2860;54.284;10.158;2023-06-19T04:32:55;17.30;99.90
5675;DHT22;2860;54.284;10.158;2023-06-19T04:35:20;17.30;99.90
5675;DHT22;2860;54.284;10.158;2023-06-19T04:37:46;17.40;99.90
5675;DHT22;2860;54.284;10.158;2023-06-19T04:40:14;17.40;99.90
5675;DHT22;2860;54.284;10.158;2023-06-19T04:42:39;17.50;99.90
5675;DHT22;2860;54.284;10.158;2023-06-19T04:45:05;17.50;99.90
5675;DHT22;2860;54.284;10.158;2023-06-19T04:47:33;17.60;99.90
5675;DHT22;2860;54.284;10.158;2023-06-19T04:49:59;17.70;99.90
5675;DHT22;2860;54.284;10.158;2023-06-19T04:52:25;17.70;99.90
5675;DHT22;2860;54.284;10.158;2023-06-19T04:54:50;17.80;99.90
5675;DHT22;2860;54.284;10.158;2023-06-19T04:57:16;17.80;99.90
5675;DHT22;2860;54.284;10.158;2023-06-19T04:59:42;17.90;99.90
5675;DHT22;2860;54.284;10.158;2023-06-19T05:02:10;18.00;99.90
5675;DHT22;2860;54.284;10.158;2023-06-19T05:04:35;18.00;99.90
5675;DHT22;2860;54.284;10.158;2023-06-19T05:07:01;18.00;99.90
5675;DHT22;2860;54.284;10.158;2023-06-19T05:09:27;18.00;99.90
5675;DHT22;2860;54.284;10.158;2023-06-19T05:11:52;18.00;99.90
5675;DHT22;2860;54.284;10.158;2023-06-19T05:14:18;18.10;99.90
5675;DHT22;2860;54.284;10.158;2023-06-19T05:16:43;18.10;99.90
5675;DHT22;2860;54.284;10.158;2023-06-19T05:19:09;18.20;99.90
5675;DHT22;2860;54.284;10.158;2023-06-19T05:21:35;18.20;99.90
5675;DHT22;2860;54.284;10.158;2023-06-19T05:24:00;18.20;99.90
5675;DHT22;2860;54.284;10.158;2023-06-19T05:26:26;18.20;99.90
5675;DHT22;2860;54.284;10.158;2023-06-19T05:28:51;18.20;99.90
5675;DHT22;2860;54.284;10.158;2023-06-19T05:31:17;18.20;99.90
5675;DHT22;2860;54.284;10.158;2023-06-19T05:33:44;18.20;99.90
5675;DHT22;2860;54.284;10.158;2023-06-19T05:36:10;18.20;99.90
5675;DHT22;2860;54.284;10.158;2023-06-19T05:38:35;18.20;99.90
5675;DHT22;2860;54.284;10.158;2023-06-19T05:41:02;18.30;99.90
5675;DHT22;2860;54.284;10.158;2023-06-19T05:43:28;18.30;99.90
5675;DHT22;2860;54.284;10.158;2023-06-19T05:45:54;18.30;99.90
5675;DHT22;2860;54.284;10.158;2023-06-19T05:48:21;18.30;99.90
5675;DHT22;2860;54.284;10.158;2023-06-19T05:50:47;18.30;99.90
5675;DHT22;2860;54.284;10.158;2023-06-19T05:53:12;18.40;99.90
5675;DHT22;2860;54.284;10.158;2023-06-19T05:55:38;18.40;99.90
5675;DHT22;2860;54.284;10.158;2023-06-19T05:58:03;18.50;99.90
5675;DHT22;2860;54.284;10.158;2023-06-19T06:00:30;18.50;99.90
5675;DHT22;2860;54.284;10.158;2023-06-19T06:02:59;18.50;99.90
5675;DHT22;2860;54.284;10.158;2023-06-19T06:05:28;18.50;99.90
5675;DHT22;2860;54.284;10.158;2023-06-19T06:07:54;18.50;99.90
5675;DHT22;2860;54.284;10.158;2023-06-19T06:10:23;18.60;99.90
5675;DHT22;2860;54.284;10.158;2023-06-19T06:12:50;18.60;99.90
5675;DHT22;2860;54.284;10.158;2023-06-19T06:15:16;18.60;99.90
5675;DHT22;2860;54.284;10.158;2023-06-19T06:17:42;18.60;99.90
5675;DHT22;2860;54.284;10.158;2023-06-19T06:20:08;18.70;99.90
5675;DHT22;2860;54.284;10.158;2023-06-19T06:22:41;18.70;99.90
5675;DHT22;2860;54.284;10.158;2023-06-19T06:25:07;18.70;99.90
5675;DHT22;2860;54.284;10.158;2023-06-19T06:27:33;18.70;99.90
5675;DHT22;2860;54.284;10.158;2023-06-19T06:29:59;18.70;99.90
5675;DHT22;2860;54.284;10.158;2023-06-19T06:32:24;18.80;99.90
5675;DHT22;2860;54.284;10.158;2023-06-19T06:34:51;18.80;99.90
5675;DHT22;2860;54.284;10.158;2023-06-19T06:37:17;18.80;99.90
5675;DHT22;2860;54.284;10.158;2023-06-19T06:39:50;18.80;99.90
5675;DHT22;2860;54.284;10.158;2023-06-19T06:42:16;18.80;99.90
5675;DHT22;2860;54.284;10.158;2023-06-19T06:44:45;18.90;99.90
5675;DHT22;2860;54.284;10.158;2023-06-19T06:47:11;18.90;99.90
5675;DHT22;2860;54.284;10.158;2023-06-19T06:49:36;18.90;99.90
5675;DHT22;2860;54.284;10.158;2023-06-19T06:52:03;18.90;99.90
5675;DHT22;2860;54.284;10.158;2023-06-19T06:54:29;18.90;99.90
5675;DHT22;2860;54.284;10.158;2023-06-19T06:56:55;18.90;99.90
5675;DHT22;2860;54.284;10.158;2023-06-19T06:59:24;19.00;99.90
5675;DHT22;2860;54.284;10.158;2023-06-19T07:01:49;19.00;99.90
5675;DHT22;2860;54.284;10.158;2023-06-19T07:04:15;19.10;99.90
5675;DHT22;2860;54.284;10.158;2023-06-19T07:06:40;19.20;99.90
5675;DHT22;2860;54.284;10.158;2023-06-19T07:09:06;19.30;99.90
5675;DHT22;2860;54.284;10.158;2023-06-19T07:11:31;19.30;99.90
5675;DHT22;2860;54.284;10.158;2023-06-19T07:13:57;19.40;99.90
5675;DHT22;2860;54.284;10.158;2023-06-19T07:16:22;19.50;99.90
5675;DHT22;2860;54.284;10.158;2023-06-19T07:18:48;19.60;99.90
5675;DHT22;2860;54.284;10.158;2023-06-19T07:21:14;19.80;99.90
5675;DHT22;2860;54.284;10.158;2023-06-19T07:23:41;19.80;99.90
5675;DHT22;2860;54.284;10.158;2023-06-19T07:26:09;19.90;99.90
5675;DHT22;2860;54.284;10.158;2023-06-19T07:28:35;20.00;99.90
5675;DHT22;2860;54.284;10.158;2023-06-19T07:31:03;20.10;99.90
5675;DHT22;2860;54.284;10.158;2023-06-19T07:33:29;20.20;99.90
5675;DHT22;2860;54.284;10.158;2023-06-19T07:35:55;20.20;99.90
5675;DHT22;2860;54.284;10.158;2023-06-19T07:38:21;20.20;99.90
5675;DHT22;2860;54.284;10.158;2023-06-19T07:40:46;20.20;99.90
5675;DHT22;2860;54.284;10.158;2023-06-19T07:43:12;20.10;99.90
5675;DHT22;2860;54.284;10.158;2023-06-19T07:45:37;20.10;99.90
5675;DHT22;2860;54.284;10.158;2023-06-19T07:48:03;20.10;99.90
5675;DHT22;2860;54.284;10.158;2023-06-19T07:50:28;20.00;99.90
5675;DHT22;2860;54.284;10.158;2023-06-19T07:52:54;20.00;99.90
5675;DHT22;2860;54.284;10.158;2023-06-19T07:55:19;20.00;99.90
5675;DHT22;2860;54.284;10.158;2023-06-19T07:57:45;19.90;99.90
5675;DHT22;2860;54.284;10.158;2023-06-19T08:00:11;19.90;99.90
5675;DHT22;2860;54.284;10.158;2023-06-19T08:02:41;19.80;99.90
5675;DHT22;2860;54.284;10.158;2023-06-19T08:05:07;19.70;99.90
5675;DHT22;2860;54.284;10.158;2023-06-19T08:07:34;19.70;99.90
5675;DHT22;2860;54.284;10.158;2023-06-19T08:10:00;19.60;99.90
5675;DHT22;2860;54.284;10.158;2023-06-19T08:12:25;19.60;99.90
5675;DHT22;2860;54.284;10.158;2023-06-19T08:14:51;19.60;99.90
5675;DHT22;2860;54.284;10.158;2023-06-19T08:17:17;19.60;99.90
5675;DHT22;2860;54.284;10.158;2023-06-19T08:19:42;19.60;99.90
5675;DHT22;2860;54.284;10.158;2023-06-19T08:22:08;19.50;99.90
5675;DHT22;2860;54.284;10.158;2023-06-19T08:24:35;19.40;99.90
5675;DHT22;2860;54.284;10.158;2023-06-19T08:27:02;19.30;99.90
5675;DHT22;2860;54.284;10.158;2023-06-19T08:29:27;19.20;99.90
5675;DHT22;2860;54.284;10.158;2023-06-19T08:31:53;19.10;99.90
5675;DHT22;2860;54.284;10.158;2023-06-19T08:34:18;19.00;99.90
5675;DHT22;2860;54.284;10.158;2023-06-19T08:36:44;18.80;99.90
5675;DHT22;2860;54.284;10.158;2023-06-19T08:39:09;18.70;99.90
5675;DHT22;2860;54.284;10.158;2023-06-19T08:41:38;18.70;99.90
5675;DHT22;2860;54.284;10.158;2023-06-19T08:44:04;18.70;99.90
5675;DHT22;2860;54.284;10.158;2023-06-19T08:46:30;18.60;99.90
5675;DHT22;2860;54.284;10.158;2023-06-19T08:48:55;18.60;99.90
5675;DHT22;2860;54.284;10.158;2023-06-19T08:51:21;18.70;99.90
5675;DHT22;2860;54.284;10.158;2023-06-19T08:53:49;18.80;99.90
5675;DHT22;2860;54.284;10.158;2023-06-19T08:56:18;19.00;99.90
5675;DHT22;2860;54.284;10.158;2023-06-19T08:58:43;19.20;99.90
5675;DHT22;2860;54.284;10.158;2023-06-19T09:01:09;19.30;99.90
5675;DHT22;2860;54.284;10.158;2023-06-19T09:03:35;19.30;99.90
5675;DHT22;2860;54.284;10.158;2023-06-19T09:06:06;19.50;99.90
5675;DHT22;2860;54.284;10.158;2023-06-19T09:08:31;19.80;99.90
5675;DHT22;2860;54.284;10.158;2023-06-19T09:11:04;20.10;99.90
5675;DHT22;2860;54.284;10.158;2023-06-19T09:13:31;20.40;99.90
5675;DHT22;2860;54.284;10.158;2023-06-19T09:16:07;20.70;99.90
5675;DHT22;2860;54.284;10.158;2023-06-19T09:18:48;20.80;99.90
5675;DHT22;2860;54.284;10.158;2023-06-19T09:21:21;21.00;99.90
5675;DHT22;2860;54.284;10.158;2023-06-19T09:23:50;20.90;99.90
5675;DHT22;2860;54.284;10.158;2023-06-19T09:26:17;20.80;99.90
5675;DHT22;2860;54.284;10.158;2023-06-19T09:28:44;20.90;99.90
5675;DHT22;2860;54.284;10.158;2023-06-19T09:31:10;20.90;99.90
5675;DHT22;2860;54.284;10.158;2023-06-19T09:33:37;21.00;99.90
5675;DHT22;2860;54.284;10.158;2023-06-19T09:36:04;21.00;99.90
5675;DHT22;2860;54.284;10.158;2023-06-19T09:38:32;21.20;99.90
5675;DHT22;2860;54.284;10.158;2023-06-19T09:41:01;21.40;99.90
5675;DHT22;2860;54.284;10.158;2023-06-19T09:43:36;21.90;99.90
5675;DHT22;2860;54.284;10.158;2023-06-19T09:46:03;22.30;99.90
5675;DHT22;2860;54.284;10.158;2023-06-19T09:48:30;22.60;99.90
5675;DHT22;2860;54.284;10.158;2023-06-19T09:51:09;22.90;99.90
5675;DHT22;2860;54.284;10.158;2023-06-19T09:53:36;23.10;99.90
5675;DHT22;2860;54.284;10.158;2023-06-19T09:56:02;23.30;99.90
5675;DHT22;2860;54.284;10.158;2023-06-19T09:58:27;23.50;99.90
5675;DHT22;2860;54.284;10.158;2023-06-19T10:00:54;23.70;99.90
5675;DHT22;2860;54.284;10.158;2023-06-19T10:03:20;24.00;99.90
5675;DHT22;2860;54.284;10.158;2023-06-19T10:05:46;24.30;99.90
5675;DHT22;2860;54.284;10.158;2023-06-19T10:08:12;24.50;99.90
5675;DHT22;2860;54.284;10.158;2023-06-19T10:10:46;24.40;99.90
5675;DHT22;2860;54.284;10.158;2023-06-19T10:13:14;24.70;99.90
5675;DHT22;2860;54.284;10.158;2023-06-19T10:15:41;24.90;99.90
5675;DHT22;2860;54.284;10.158;2023-06-19T10:18:17;25.20;99.90
5675;DHT22;2860;54.284;10.158;2023-06-19T10:20:44;25.40;99.90
5675;DHT22;2860;54.284;10.158;2023-06-19T10:25:44;25.70;99.90
5675;DHT22;2860;54.284;10.158;2023-06-19T10:28:21;25.40;99.90
5675;DHT22;2860;54.284;10.158;2023-06-19T10:31:04;25.30;99.90
5675;DHT22;2860;54.284;10.158;2023-06-19T10:33:31;25.10;99.90
5675;DHT22;2860;54.284;10.158;2023-06-19T10:36:20;25.00;99.90
5675;DHT22;2860;54.284;10.158;2023-06-19T10:38:48;25.10;99.90
5675;DHT22;2860;54.284;10.158;2023-06-19T10:41:18;25.30;99.90
5675;DHT22;2860;54.284;10.158;2023-06-19T10:43:58;25.60;99.90
5675;DHT22;2860;54.284;10.158;2023-06-19T10:46:28;26.00;99.90
5675;DHT22;2860;54.284;10.158;2023-06-19T10:48:55;26.00;99.90
5675;DHT22;2860;54.284;10.158;2023-06-19T10:51:25;26.20;99.90
5675;DHT22;2860;54.284;10.158;2023-06-19T10:53:54;26.30;99.90
5675;DHT22;2860;54.284;10.158;2023-06-19T10:56:21;26.10;99.90
5675;DHT22;2860;54.284;10.158;2023-06-19T10:58:46;26.30;99.90
5675;DHT22;2860;54.284;10.158;2023-06-19T11:01:12;26.50;99.90
5675;DHT22;2860;54.284;10.158;2023-06-19T11:03:37;26.70;99.90
5675;DHT22;2860;54.284;10.158;2023-06-19T11:06:03;26.90;99.90
5675;DHT22;2860;54.284;10.158;2023-06-19T11:08:28;27.00;99.90
5675;DHT22;2860;54.284;10.158;2023-06-19T11:10:55;27.10;99.90
5675;DHT22;2860;54.284;10.158;2023-06-19T11:13:21;27.30;99.90
5675;DHT22;2860;54.284;10.158;2023-06-19T11:15:50;27.40;99.90
5675;DHT22;2860;54.284;10.158;2023-06-19T11:18:17;27.30;99.90
5675;DHT22;2860;54.284;10.158;2023-06-19T11:20:47;27.40;99.90
5675;DHT22;2860;54.284;10.158;2023-06-19T11:23:13;27.50;99.90
5675;DHT22;2860;54.284;10.158;2023-06-19T11:25:40;28.00;99.90
5675;DHT22;2860;54.284;10.158;2023-06-19T11:28:16;28.30;99.90
5675;DHT22;2860;54.284;10.158;2023-06-19T11:30:48;28.70;99.90
5675;DHT22;2860;54.284;10.158;2023-06-19T11:33:20;28.80;99.90
5675;DHT22;2860;54.284;10.158;2023-06-19T11:35:51;29.10;99.90
5675;DHT22;2860;54.284;10.158;2023-06-19T11:38:24;29.10;99.90
5675;DHT22;2860;54.284;10.158;2023-06-19T11:40:52;28.80;99.90
5675;DHT22;2860;54.284;10.158;2023-06-19T11:43:25;28.70;99.90
5675;DHT22;2860;54.284;10.158;2023-06-19T11:45:51;28.60;99.90
5675;DHT22;2860;54.284;10.158;2023-06-19T11:48:24;28.40;99.90
5675;DHT22;2860;54.284;10.158;2023-06-19T11:50:50;28.40;99.90
5675;DHT22;2860;54.284;10.158;2023-06-19T11:53:17;28.60;99.90
5675;DHT22;2860;54.284;10.158;2023-06-19T11:55:42;28.80;99.90
5675;DHT22;2860;54.284;10.158;2023-06-19T11:58:09;28.90;99.90
5675;DHT22;2860;54.284;10.158;2023-06-19T12:00:36;29.30;99.90
5675;DHT22;2860;54.284;10.158;2023-06-19T12:03:03;29.60;99.90
5675;DHT22;2860;54.284;10.158;2023-06-19T12:05:28;29.80;99.90
5675;DHT22;2860;54.284;10.158;2023-06-19T12:07:54;29.80;99.90
5675;DHT22;2860;54.284;10.158;2023-06-19T12:10:20;29.80;99.90
5675;DHT22;2860;54.284;10.158;2023-06-19T12:12:45;29.80;99.90
5675;DHT22;2860;54.284;10.158;2023-06-19T12:15:11;29.80;99.90
5675;DHT22;2860;54.284;10.158;2023-06-19T12:17:36;29.80;99.90
5675;DHT22;2860;54.284;10.158;2023-06-19T12:20:03;30.00;99.90
5675;DHT22;2860;54.284;10.158;2023-06-19T12:22:32;30.30;99.90
5675;DHT22;2860;54.284;10.158;2023-06-19T12:24:57;30.80;99.90
5675;DHT22;2860;54.284;10.158;2023-06-19T12:27:23;31.30;99.90
5675;DHT22;2860;54.284;10.158;2023-06-19T12:29:48;31.80;99.90
5675;DHT22;2860;54.284;10.158;2023-06-19T12:32:14;31.90;99.90
5675;DHT22;2860;54.284;10.158;2023-06-19T12:34:39;31.80;99.90
5675;DHT22;2860;54.284;10.158;2023-06-19T12:37:05;31.70;99.90
5675;DHT22;2860;54.284;10.158;2023-06-19T12:39:32;31.60;99.90
5675;DHT22;2860;54.284;10.158;2023-06-19T12:41:58;31.50;99.90
5675;DHT22;2860;54.284;10.158;2023-06-19T12:44:23;31.40;99.90
5675;DHT22;2860;54.284;10.158;2023-06-19T12:46:50;31.30;99.90
5675;DHT22;2860;54.284;10.158;2023-06-19T12:49:15;31.20;99.90
5675;DHT22;2860;54.284;10.158;2023-06-19T12:51:41;31.20;99.90
5675;DHT22;2860;54.284;10.158;2023-06-19T12:54:06;31.10;99.90
5675;DHT22;2860;54.284;10.158;2023-06-19T12:56:32;30.80;99.90
5675;DHT22;2860;54.284;10.158;2023-06-19T12:58:57;30.60;99.90
5675;DHT22;2860;54.284;10.158;2023-06-19T13:01:23;30.40;99.90
5675;DHT22;2860;54.284;10.158;2023-06-19T13:03:48;30.30;99.90
5675;DHT22;2860;54.284;10.158;2023-06-19T13:06:14;30.40;99.90
5675;DHT22;2860;54.284;10.158;2023-06-19T13:08:39;30.50;99.90
5675;DHT22;2860;54.284;10.158;2023-06-19T13:11:05;30.50;99.90
5675;DHT22;2860;54.284;10.158;2023-06-19T13:13:30;30.50;99.90
5675;DHT22;2860;54.284;10.158;2023-06-19T13:15:56;30.40;99.90
5675;DHT22;2860;54.284;10.158;2023-06-19T13:18:21;30.40;99.90
5675;DHT22;2860;54.284;10.158;2023-06-19T13:20:47;30.40;99.90
5675;DHT22;2860;54.284;10.158;2023-06-19T13:23:14;30.50;99.90
5675;DHT22;2860;54.284;10.158;2023-06-19T13:25:40;30.40;99.90
5675;DHT22;2860;54.284;10.158;2023-06-19T13:28:05;30.00;99.90
5675;DHT22;2860;54.284;10.158;2023-06-19T13:30:31;29.60;99.90
5675;DHT22;2860;54.284;10.158;2023-06-19T13:32:56;29.00;99.90
5675;DHT22;2860;54.284;10.158;2023-06-19T13:35:22;28.80;99.90
5675;DHT22;2860;54.284;10.158;2023-06-19T13:37:47;28.70;99.90
5675;DHT22;2860;54.284;10.158;2023-06-19T13:40:13;28.60;99.90
5675;DHT22;2860;54.284;10.158;2023-06-19T13:42:38;28.70;99.90
5675;DHT22;2860;54.284;10.158;2023-06-19T13:45:04;28.70;99.90
5675;DHT22;2860;54.284;10.158;2023-06-19T13:47:30;28.80;99.90
5675;DHT22;2860;54.284;10.158;2023-06-19T13:49:56;28.80;99.90
5675;DHT22;2860;54.284;10.158;2023-06-19T13:52:22;28.80;99.90
5675;DHT22;2860;54.284;10.158;2023-06-19T13:54:48;28.50;99.90
5675;DHT22;2860;54.284;10.158;2023-06-19T13:57:13;28.40;99.90
5675;DHT22;2860;54.284;10.158;2023-06-19T13:59:39;28.30;99.90
5675;DHT22;2860;54.284;10.158;2023-06-19T14:02:05;28.50;99.90
5675;DHT22;2860;54.284;10.158;2023-06-19T14:04:30;28.70;99.90
5675;DHT22;2860;54.284;10.158;2023-06-19T14:06:57;28.80;99.90
5675;DHT22;2860;54.284;10.158;2023-06-19T14:09:22;28.60;99.90
5675;DHT22;2860;54.284;10.158;2023-06-19T14:11:47;28.60;99.90
5675;DHT22;2860;54.284;10.158;2023-06-19T14:14:13;28.50;99.90
5675;DHT22;2860;54.284;10.158;2023-06-19T14:16:38;28.30;99.90
5675;DHT22;2860;54.284;10.158;2023-06-19T14:19:04;28.10;99.90
5675;DHT22;2860;54.284;10.158;2023-06-19T14:21:29;28.00;99.90
5675;DHT22;2860;54.284;10.158;2023-06-19T14:23:55;28.10;99.90
5675;DHT22;2860;54.284;10.158;2023-06-19T14:26:21;28.20;99.90
5675;DHT22;2860;54.284;10.158;2023-06-19T14:28:46;28.30;99.90
5675;DHT22;2860;54.284;10.158;2023-06-19T14:31:12;28.30;99.90
5675;DHT22;2860;54.284;10.158;2023-06-19T14:33:37;28.30;99.90
5675;DHT22;2860;54.284;10.158;2023-06-19T14:36:03;28.30;99.90
5675;DHT22;2860;54.284;10.158;2023-06-19T14:38:29;28.10;99.90
5675;DHT22;2860;54.284;10.158;2023-06-19T14:40:59;27.90;99.90
5675;DHT22;2860;54.284;10.158;2023-06-19T14:43:26;27.70;99.90
5675;DHT22;2860;54.284;10.158;2023-06-19T14:45:51;27.50;99.90
5675;DHT22;2860;54.284;10.158;2023-06-19T14:48:17;27.40;99.90
5675;DHT22;2860;54.284;10.158;2023-06-19T14:50:43;27.20;99.90
5675;DHT22;2860;54.284;10.158;2023-06-19T14:53:08;27.20;99.90
5675;DHT22;2860;54.284;10.158;2023-06-19T14:55:34;27.20;99.90
5675;DHT22;2860;54.284;10.158;2023-06-19T14:57:59;27.20;99.90
5675;DHT22;2860;54.284;10.158;2023-06-19T15:00:25;27.20;99.90
5675;DHT22;2860;54.284;10.158;2023-06-19T15:02:50;27.10;99.90
5675;DHT22;2860;54.284;10.158;2023-06-19T15:05:16;27.10;99.90
5675;DHT22;2860;54.284;10.158;2023-06-19T15:07:41;26.90;99.90
5675;DHT22;2860;54.284;10.158;2023-06-19T15:10:07;26.80;99.90
5675;DHT22;2860;54.284;10.158;2023-06-19T15:12:33;26.90;99.90
5675;DHT22;2860;54.284;10.158;2023-06-19T15:15:00;26.90;99.90
5675;DHT22;2860;54.284;10.158;2023-06-19T15:17:25;27.10;99.90
5675;DHT22;2860;54.284;10.158;2023-06-19T15:19:51;27.00;99.90
5675;DHT22;2860;54.284;10.158;2023-06-19T15:22:16;27.10;99.90
5675;DHT22;2860;54.284;10.158;2023-06-19T15:24:42;27.10;99.90
5675;DHT22;2860;54.284;10.158;2023-06-19T15:27:07;27.00;99.90
5675;DHT22;2860;54.284;10.158;2023-06-19T15:29:33;26.80;99.90
5675;DHT22;2860;54.284;10.158;2023-06-19T15:31:58;26.50;99.90
5675;DHT22;2860;54.284;10.158;2023-06-19T15:34:24;26.30;99.90
5675;DHT22;2860;54.284;10.158;2023-06-19T15:36:49;26.10;99.90
5675;DHT22;2860;54.284;10.158;2023-06-19T15:39:15;25.90;99.90
5675;DHT22;2860;54.284;10.158;2023-06-19T15:41:43;25.60;99.90
5675;DHT22;2860;54.284;10.158;2023-06-19T15:44:14;25.40;99.90
5675;DHT22;2860;54.284;10.158;2023-06-19T15:46:39;25.30;99.90